Time;durP1;ratioP1;P1;durP2;ratioP2;P2;SDS_P1;SDS_P2;PMS_P1;PMS_P2;Temp;Humidity;BMP_temperature;BMP_pressure;BME280_temperature;BME280_humidity;BME280_pressure;Samples;Min_cycle;Max_cycle;Signal;HPM_P1;HPM_P2
2022/09/21 00:00:41;;;;;;;11.15;6.97;;;;;;;9.10;90.36;99419.34;1727187;83;21153;-50
2022/09/21 00:03:08;;;;;;;11.43;6.80;;;;;;;9.10;89.87;99415.88;1727462;82;21008;-49
2022/09/21 00:05:34;;;;;;;13.25;6.47;;;;;;;9.08;89.66;99418.56;1727021;83;20988;-48
2022/09/21 00:08:02;;;;;;;11.08;5.97;;;;;;;9.08;90.31;99421.63;1727131;83;21586;-48
2022/09/21 00:10:28;;;;;;;13.65;6.45;;;;;;;9.08;89.92;99421.19;1726998;83;20993;-47
2022/09/21 00:12:56;;;;;;;11.78;6.25;;;;;;;9.07;89.78;99427.81;1727035;82;21007;-49
2022/09/21 00:15:23;;;;;;;9.00;6.30;;;;;;;9.05;89.58;99424.41;1727083;83;20985;-48
2022/09/21 00:17:52;;;;;;;11.15;6.78;;;;;;;9.01;90.69;99420.61;1727712;82;21001;-47
2022/09/21 00:20:20;;;;;;;12.13;6.08;;;;;;;9.05;89.79;99426.56;1728682;83;20941;-46
2022/09/21 00:22:47;;;;;;;9.33;5.97;;;;;;;9.08;89.52;99429.49;1728606;83;21450;-47
2022/09/21 00:25:14;;;;;;;12.13;6.92;;;;;;;9.03;89.85;99421.86;1728465;83;21021;-49
2022/09/21 00:27:40;;;;;;;9.25;6.40;;;;;;;9.01;90.17;99427.64;1728760;83;21021;-46
2022/09/21 00:30:07;;;;;;;11.75;6.45;;;;;;;8.93;91.13;99425.38;1728166;83;21117;-47
2022/09/21 00:32:36;;;;;;;10.90;6.05;;;;;;;8.92;91.13;99426.76;1728815;83;20980;-46
2022/09/21 00:35:05;;;;;;;13.50;7.03;;;;;;;8.91;91.07;99430.28;1728748;83;20977;-49
2022/09/21 00:37:31;;;;;;;11.08;6.53;;;;;;;8.86;91.82;99426.58;1728648;83;20978;-49
2022/09/21 00:39:57;;;;;;;7.65;5.87;;;;;;;8.87;91.76;99432.20;1728582;83;20970;-47
2022/09/21 00:42:30;;;;;;;10.68;6.12;;;;;;;8.86;91.82;99433.14;1728607;83;20973;-47
2022/09/21 00:44:56;;;;;;;11.60;5.80;;;;;;;8.86;91.15;99440.13;1728465;82;20973;-47
2022/09/21 00:47:33;;;;;;;9.88;6.00;;;;;;;8.85;91.85;99437.98;1728641;83;20965;-48
2022/09/21 00:50:04;;;;;;;9.33;6.08;;;;;;;8.86;92.04;99437.52;1728753;82;20984;-46
2022/09/21 00:52:36;;;;;;;10.23;6.45;;;;;;;8.83;92.42;99432.80;1728591;81;21411;-48
2022/09/21 00:55:07;;;;;;;8.93;6.03;;;;;;;8.81;91.99;99429.41;1728756;83;20941;-47
2022/09/21 00:57:34;;;;;;;10.28;5.58;;;;;;;8.83;91.35;99428.87;1728673;83;20984;-47
2022/09/21 01:00:04;;;;;;;11.07;5.90;;;;;;;8.81;91.86;99431.19;1728840;83;20953;-48
2022/09/21 01:02:30;;;;;;;11.35;6.92;;;;;;;8.83;91.08;99435.89;1699892;83;20988;-46
2022/09/21 01:04:57;;;;;;;10.75;6.12;;;;;;;8.83;91.40;99428.02;1728606;83;20985;-45
2022/09/21 01:07:27;;;;;;;9.35;6.25;;;;;;;8.82;91.15;99433.74;1700150;83;21419;-47
2022/09/21 01:09:57;;;;;;;13.60;5.70;;;;;;;8.86;90.94;99435.77;1728682;82;20953;-47
2022/09/21 01:12:31;;;;;;;11.35;6.78;;;;;;;8.85;91.05;99441.91;1728662;83;21021;-46
2022/09/21 01:15:05;;;;;;;11.97;6.45;;;;;;;8.82;92.00;99442.05;1728412;83;20949;-47
2022/09/21 01:17:54;;;;;;;10.68;6.30;;;;;;;8.79;91.46;99438.27;1728238;83;21036;-47
2022/09/21 01:20:54;;;;;;;13.05;6.75;;;;;;;8.79;91.23;99443.52;1725784;83;20969;-47
2022/09/21 01:23:44;;;;;;;10.25;6.47;;;;;;;8.77;91.21;99440.12;1726026;83;21012;-46
2022/09/21 01:26:35;;;;;;;11.30;6.78;;;;;;;8.78;91.10;99440.02;1726800;81;21489;-47
2022/09/21 01:29:09;;;;;;;12.60;6.37;;;;;;;8.76;90.98;99448.42;1726625;82;20995;-47
2022/09/21 01:31:52;;;;;;;11.38;6.30;;;;;;;8.80;90.53;99442.58;1727247;83;21474;-47
2022/09/21 01:34:29;;;;;;;13.20;6.30;;;;;;;8.80;90.55;99450.01;1726938;82;20981;-49
2022/09/21 01:36:59;;;;;;;10.70;5.90;;;;;;;8.78;90.46;99440.02;1727301;83;21024;-49
2022/09/21 01:39:28;;;;;;;10.50;6.05;;;;;;;8.72;91.91;99452.58;1723999;83;21014;-46
2022/09/21 01:41:55;;;;;;;10.23;6.17;;;;;;;8.73;92.23;99445.96;1755534;82;20968;-49
2022/09/21 01:44:24;;;;;;;;;;;;;;;8.77;91.13;99440.95;1758189;82;20999;-46
2022/09/21 01:46:51;;;;;;;9.65;6.10;;;;;;;8.76;91.83;99444.95;1755699;81;20114;-47
2022/09/21 01:49:30;;;;;;;10.08;6.35;;;;;;;8.75;92.51;99441.50;1755819;82;21530;-49
2022/09/21 01:52:14;;;;;;;11.48;6.80;;;;;;;8.79;91.34;99440.89;1755658;81;21007;-46
2022/09/21 01:54:48;;;;;;;10.00;6.87;;;;;;;8.80;91.92;99451.32;1755703;81;20995;-48
2022/09/21 01:57:37;;;;;;;12.70;6.50;;;;;;;8.81;92.15;99446.92;1755659;82;21006;-47
2022/09/21 02:00:06;;;;;;;11.30;6.95;;;;;;;8.81;92.73;99449.07;1747732;82;21003;-46
2022/09/21 02:02:43;;;;;;;9.60;6.90;;;;;;;8.86;92.38;99448.00;1752849;81;21023;-46
2022/09/21 02:05:10;;;;;;;11.12;7.65;;;;;;;8.83;92.69;99445.91;1709020;84;20981;-47
2022/09/21 02:07:38;;;;;;;12.45;7.22;;;;;;;8.82;93.54;99452.53;1701657;84;21021;-46
2022/09/21 02:10:07;;;;;;;9.35;7.20;;;;;;;8.82;92.90;99454.72;1709086;84;21005;-47
2022/09/21 02:12:34;;;;;;;12.85;7.67;;;;;;;8.88;92.18;99453.59;1709036;84;21013;-46
2022/09/21 02:15:02;;;;;;;10.25;8.05;;;;;;;8.84;92.53;99456.81;1709049;84;21002;-47
2022/09/21 02:17:45;;;;;;;9.50;6.92;;;;;;;8.87;91.66;99461.05;1708810;82;21001;-47
2022/09/21 02:20:30;;;;;;;12.50;8.33;;;;;;;8.85;91.92;99458.96;1729736;83;20988;-48
2022/09/21 02:23:08;;;;;;;9.00;7.45;;;;;;;8.81;93.29;99463.49;1716522;82;21021;-47
2022/09/21 02:25:57;;;;;;;15.28;8.23;;;;;;;8.82;92.89;99465.20;1706057;83;21006;-47
2022/09/21 02:28:34;;;;;;;13.93;7.65;;;;;;;8.78;93.76;99464.93;1716511;82;20990;-46
2022/09/21 02:31:20;;;;;;;14.43;8.50;;;;;;;8.84;93.58;99469.92;1716580;83;20978;-46
2022/09/21 02:34:00;;;;;;;12.75;8.10;;;;;;;8.85;93.11;99462.89;1716464;83;21025;-47
2022/09/21 02:36:55;;;;;;;12.53;8.30;;;;;;;8.83;94.36;99464.73;1716239;82;21582;-47
2022/09/21 02:39:32;;;;;;;11.73;7.65;;;;;;;8.75;95.67;99461.16;1715503;82;21527;-47
2022/09/21 02:42:13;;;;;;;12.35;7.20;;;;;;;8.80;94.04;99474.92;1714734;82;20987;-48
2022/09/21 02:44:51;;;;;;;13.38;8.18;;;;;;;8.82;93.75;99472.20;1715679;82;21014;-49
2022/09/21 02:47:30;;;;;;;14.90;9.10;;;;;;;8.81;95.07;99477.91;1716493;83;20994;-49
2022/09/21 02:50:03;;;;;;;12.25;8.28;;;;;;;8.81;94.89;99473.14;1715225;83;21045;-47
2022/09/21 02:52:32;;;;;;;10.45;8.48;;;;;;;8.84;95.64;99474.29;1689783;83;21050;-47
2022/09/21 02:54:58;;;;;;;15.00;8.60;;;;;;;8.85;94.95;99481.25;1716250;82;21028;-46
2022/09/21 02:57:25;;;;;;;12.65;8.88;;;;;;;8.88;94.79;99471.94;1716398;83;20998;-47
2022/09/21 02:59:51;;;;;;;15.63;7.97;;;;;;;8.92;95.28;99473.97;1716439;83;21010;-46
2022/09/21 03:02:17;;;;;;;15.55;8.55;;;;;;;8.97;93.66;99481.17;1716337;83;21026;-50
2022/09/21 03:04:50;;;;;;;11.55;7.53;;;;;;;9.00;93.95;99479.70;1716456;82;21512;-48
2022/09/21 03:07:15;;;;;;;12.43;7.95;;;;;;;9.05;94.51;99475.56;1714997;82;20978;-47
2022/09/21 03:09:41;;;;;;;;;;;;;;;9.07;93.76;99482.43;1718817;82;21069;-49
2022/09/21 03:12:07;;;;;;;12.85;7.60;;;;;;;9.02;95.10;99481.34;1716330;83;20110;-49
2022/09/21 03:14:33;;;;;;;9.28;7.25;;;;;;;9.03;96.99;99486.12;1716293;83;21006;-50
2022/09/21 03:16:59;;;;;;;11.48;7.58;;;;;;;9.03;96.99;99486.12;1716285;83;21001;-47
2022/09/21 03:19:26;;;;;;;11.75;7.75;;;;;;;9.05;94.68;99486.91;1715193;82;21061;-48
2022/09/21 03:21:53;;;;;;;12.30;8.40;;;;;;;9.05;96.51;99482.97;1715077;83;21044;-48
2022/09/21 03:24:44;;;;;;;11.12;8.35;;;;;;;9.08;96.98;99488.52;1714958;84;21551;-46
2022/09/21 03:26:47;;;;;;;11.95;7.67;;;;;;;9.07;97.09;99481.12;1711052;83;20988;-46
2022/09/21 03:29:13;;;;;;;10.72;6.97;;;;;;;9.12;96.55;99490.95;1714831;83;21005;-46
2022/09/21 03:31:39;;;;;;;10.58;7.30;;;;;;;9.12;96.02;99496.19;1714887;83;21001;-48
2022/09/21 03:34:05;;;;;;;10.80;7.53;;;;;;;9.11;96.58;99489.23;1714823;84;21487;-47
2022/09/21 03:36:30;;;;;;;11.20;8.28;;;;;;;9.20;96.83;99498.02;1714774;83;21020;-47
2022/09/21 03:38:56;;;;;;;10.98;8.10;;;;;;;9.20;97.41;99494.08;1714657;84;20962;-46
2022/09/21 03:41:22;;;;;;;15.83;8.20;;;;;;;9.21;97.36;99490.98;1714815;84;21001;-46
2022/09/21 03:43:48;;;;;;;10.10;7.37;;;;;;;9.27;96.87;99494.62;1714852;84;21482;-47
2022/09/21 03:46:13;;;;;;;13.28;8.53;;;;;;;9.28;96.62;99500.72;1714794;84;21495;-50
2022/09/21 03:48:41;;;;;;;15.25;8.50;;;;;;;9.31;97.48;99499.27;1714764;84;21455;-47
2022/09/21 03:51:06;;;;;;;;;;;;;;;9.31;97.91;99496.65;1717348;83;21005;-48
2022/09/21 03:53:32;;;;;;;13.80;8.53;;;;;;;9.33;98.14;99497.42;1714707;84;20132;-45
2022/09/21 03:55:58;;;;;;;10.72;8.28;;;;;;;9.36;98.03;99503.84;1714706;83;21065;-45
2022/09/21 03:58:24;;;;;;;9.58;7.75;;;;;;;9.40;97.62;99508.02;1714721;84;21040;-46
2022/09/21 04:00:49;;;;;;;12.18;8.20;;;;;;;9.36;98.01;99507.78;1714709;84;20992;-46
2022/09/21 04:03:15;;;;;;;10.80;7.67;;;;;;;9.39;97.45;99505.03;1714687;84;21005;-47
2022/09/21 04:05:41;;;;;;;11.93;7.30;;;;;;;9.42;98.02;99514.05;1714702;84;21005;-46
2022/09/21 04:08:07;;;;;;;12.50;7.92;;;;;;;9.45;98.57;99511.29;1714851;83;20998;-48
2022/09/21 04:10:32;;;;;;;10.90;7.58;;;;;;;9.48;98.48;99517.72;1714830;83;20997;-47
2022/09/21 04:13:02;;;;;;;12.13;7.92;;;;;;;9.47;98.88;99513.84;1714775;84;21796;-49
2022/09/21 04:15:28;;;;;;;11.50;8.20;;;;;;;9.52;97.91;99513.17;1714743;84;21014;-48
2022/09/21 04:17:54;;;;;;;13.72;7.40;;;;;;;9.53;97.57;99521.42;1714765;83;20992;-47
2022/09/21 04:20:21;;;;;;;11.05;6.83;;;;;;;9.56;97.31;99525.22;1687466;83;21061;-49
2022/09/21 04:22:46;;;;;;;9.33;7.08;;;;;;;9.52;97.92;99515.80;1687223;84;21341;-47
2022/09/21 04:25:14;;;;;;;7.40;6.62;;;;;;;9.51;97.40;99520.17;1687237;84;21807;-47
2022/09/21 04:27:40;;;;;;;8.35;6.75;;;;;;;9.45;98.75;99525.73;1687474;84;21009;-45
2022/09/21 04:30:07;;;;;;;13.38;7.55;;;;;;;9.52;98.38;99523.67;1687142;84;21002;-48
2022/09/21 04:32:33;;;;;;;;;;;;;;;9.56;97.62;99530.47;1689664;84;21491;-49
2022/09/21 04:34:59;;;;;;;9.35;6.92;;;;;;;9.52;99.03;99529.77;1687103;85;20170;-45
2022/09/21 04:37:25;;;;;;;10.32;7.33;;;;;;;9.55;97.79;99529.63;1687154;84;21030;-47
2022/09/21 04:39:50;;;;;;;10.78;7.72;;;;;;;9.55;98.76;99528.32;1687071;84;21054;-47
2022/09/21 04:42:16;;;;;;;8.60;7.08;;;;;;;9.59;98.38;99527.71;1687294;84;21001;-46
2022/09/21 04:44:42;;;;;;;10.80;7.85;;;;;;;9.54;99.49;99530.54;1687214;85;21449;-49
2022/09/21 04:47:08;;;;;;;12.60;8.08;;;;;;;9.61;99.14;99530.64;1687254;84;21002;-47
2022/09/21 04:49:34;;;;;;;9.50;7.03;;;;;;;9.57;99.65;99525.62;1687085;85;20991;-46
2022/09/21 04:52:00;;;;;;;12.63;9.00;;;;;;;9.56;100.00;99531.78;1686289;84;21022;-47
2022/09/21 04:54:26;;;;;;;11.47;7.90;;;;;;;9.65;98.59;99533.12;1686337;84;21046;-46
2022/09/21 04:56:52;;;;;;;13.48;7.42;;;;;;;9.58;99.92;99530.78;1670761;86;21551;-49
2022/09/21 04:59:17;;;;;;;9.35;7.45;;;;;;;9.70;98.68;99535.08;1683533;84;21058;-47
2022/09/21 05:01:43;;;;;;;11.57;7.80;;;;;;;9.64;99.39;99541.48;1709901;83;21038;-47
2022/09/21 05:04:09;;;;;;;12.60;6.85;;;;;;;9.69;98.24;99541.24;1709959;83;21039;-47
2022/09/21 05:06:35;;;;;;;8.95;6.95;;;;;;;9.71;97.64;99545.95;1710122;83;21022;-47
2022/09/21 05:11:44;;;;;;;9.70;7.25;;;;;;;9.71;99.54;99542.02;1700455;82;21098;-47
2022/09/21 05:14:10;;;;;;;10.58;7.58;;;;;;;9.74;98.22;99549.28;1681382;85;21043;-48
2022/09/21 05:16:37;;;;;;;9.50;7.03;;;;;;;9.72;99.40;99552.92;1681436;85;21018;-50
2022/09/21 05:19:03;;;;;;;12.95;7.60;;;;;;;9.74;98.88;99560.27;1696248;83;21006;-47
2022/09/21 05:21:30;;;;;;;10.90;7.72;;;;;;;9.70;98.95;99559.55;1730750;82;21511;-50
2022/09/21 05:23:57;;;;;;;9.80;7.83;;;;;;;9.74;97.89;99561.11;1730662;83;20982;-48
2022/09/21 05:26:23;;;;;;;12.63;9.13;;;;;;;9.74;98.76;99563.73;1730798;82;21001;-46
2022/09/21 05:28:50;;;;;;;11.83;7.10;;;;;;;9.75;99.36;99568.08;1730620;82;22191;-48
2022/09/21 05:31:42;;;;;;;9.78;8.13;;;;;;;9.70;99.96;99564.81;1730678;83;21038;-47
2022/09/21 05:34:36;;;;;;;11.97;7.25;;;;;;;9.71;99.55;99568.28;1730034;83;21006;-46
2022/09/21 05:37:14;;;;;;;10.95;7.17;;;;;;;9.75;99.80;99569.83;1679782;85;21022;-49
2022/09/21 05:39:40;;;;;;;12.07;6.70;;;;;;;9.77;100.00;99574.58;1679519;85;21037;-50
2022/09/21 05:42:09;;;;;;;12.98;7.05;;;;;;;9.83;100.00;99570.33;1724568;83;21022;-50
2022/09/21 05:44:35;;;;;;;12.15;6.65;;;;;;;9.84;100.00;99566.80;1679548;85;21002;-50
2022/09/21 05:47:34;;;;;;;11.70;7.00;;;;;;;9.91;99.18;99573.42;1679798;85;21095;-47
2022/09/21 05:50:15;;;;;;;11.70;6.37;;;;;;;9.87;98.99;99570.56;1679517;85;21077;-48
2022/09/21 05:52:55;;;;;;;12.43;6.72;;;;;;;9.93;98.85;99570.73;1679711;85;21087;-48
2022/09/21 05:55:55;;;;;;;6.70;5.72;;;;;;;9.91;99.78;99581.30;1678189;85;21346;-48
2022/09/21 05:58:58;;;;;;;9.78;5.90;;;;;;;9.97;99.21;99579.72;1723827;83;20979;-47
2022/09/21 06:01:47;;;;;;;9.28;6.00;;;;;;;10.05;98.09;99589.00;1679563;85;21026;-47
2022/09/21 06:04:13;;;;;;;8.00;5.85;;;;;;;9.92;99.29;99580.39;1678710;85;21018;-47
2022/09/21 06:06:39;;;;;;;8.90;6.50;;;;;;;9.90;99.77;99578.30;1679581;85;21026;-47
2022/09/21 06:09:05;;;;;;;8.35;6.03;;;;;;;10.01;99.53;99582.20;1704214;84;21029;-47
2022/09/21 06:11:31;;;;;;;8.55;5.67;;;;;;;10.09;99.66;99576.09;1704785;84;21057;-47
2022/09/21 06:13:57;;;;;;;7.58;5.20;;;;;;;10.12;99.91;99577.27;1704762;84;21010;-48
2022/09/21 06:16:22;;;;;;;9.98;5.97;;;;;;;10.22;99.03;99585.07;1704766;83;21014;-47
2022/09/21 06:18:49;;;;;;;10.63;5.92;;;;;;;10.19;98.36;99585.25;1704617;84;21006;-48
2022/09/21 06:21:14;;;;;;;12.95;6.03;;;;;;;10.22;98.07;99586.39;1704710;84;21337;-46
2022/09/21 06:23:40;;;;;;;7.65;5.00;;;;;;;10.24;98.09;99588.50;1704796;84;21893;-48
2022/09/21 06:26:06;;;;;;;6.22;5.15;;;;;;;10.21;98.59;99590.44;1704810;84;21503;-46
2022/09/21 06:28:32;;;;;;;7.85;5.92;;;;;;;10.22;98.11;99590.33;1704802;84;21018;-49
2022/09/21 06:30:58;;;;;;;10.58;5.15;;;;;;;10.20;99.18;99589.56;1704763;84;21018;-46
2022/09/21 06:33:24;;;;;;;7.75;5.28;;;;;;;10.25;98.85;99596.76;1704709;84;21006;-49
2022/09/21 06:35:59;;;;;;;6.03;4.83;;;;;;;10.24;99.14;99595.52;1704673;84;21065;-49
2022/09/21 06:38:26;;;;;;;6.50;5.15;;;;;;;10.29;98.61;99598.77;1704716;84;21010;-48
2022/09/21 06:40:53;;;;;;;7.17;4.92;;;;;;;10.30;99.32;99597.39;1704718;84;21488;-48
2022/09/21 06:43:19;;;;;;;11.08;6.00;;;;;;;10.28;99.23;99597.94;1704962;84;21010;-45
2022/09/21 06:45:58;;;;;;;9.38;6.20;;;;;;;10.35;99.31;99598.49;1704706;84;20995;-47
2022/09/21 06:48:25;;;;;;;9.93;6.03;;;;;;;10.38;98.62;99593.94;1704341;83;20994;-47
2022/09/21 06:51:04;;;;;;;8.78;5.87;;;;;;;10.31;99.32;99596.48;1704716;84;21054;-46
2022/09/21 06:53:32;;;;;;;5.80;5.20;;;;;;;10.32;99.31;99596.87;1732562;83;21054;-48
2022/09/21 06:56:08;;;;;;;5.22;4.37;;;;;;;10.42;99.27;99597.73;1770323;81;20982;-48
2022/09/21 06:58:36;;;;;;;5.62;4.12;;;;;;;10.45;99.03;99591.86;1756198;81;20986;-49
2022/09/21 07:01:08;;;;;;;7.42;4.12;;;;;;;10.51;99.52;99601.22;1770287;81;21621;-49
2022/09/21 07:03:36;;;;;;;9.65;5.12;;;;;;;10.59;99.05;99606.95;1759924;81;21065;-48
2022/09/21 07:06:02;;;;;;;6.83;5.22;;;;;;;10.55;99.16;99610.65;1770454;81;21009;-48
2022/09/21 07:08:28;;;;;;;7.80;4.30;;;;;;;10.61;98.96;99606.41;1760598;81;20978;-47
2022/09/21 07:10:59;;;;;;;4.78;3.70;;;;;;;10.70;98.27;99611.68;1770278;81;20998;-46
2022/09/21 07:13:26;;;;;;;4.53;3.92;;;;;;;10.66;98.54;99610.98;1760510;81;20994;-48
2022/09/21 07:15:52;;;;;;;7.80;4.62;;;;;;;10.80;98.39;99610.73;1770527;81;20974;-48
2022/09/21 07:18:18;;;;;;;6.85;3.95;;;;;;;10.86;97.96;99615.23;1760653;81;21455;-50
2022/09/21 07:20:44;;;;;;;6.87;3.80;;;;;;;10.90;97.24;99616.77;1767744;81;20966;-49
2022/09/21 07:23:17;;;;;;;6.42;4.15;;;;;;;10.94;96.62;99620.09;1760005;81;20975;-47
2022/09/21 07:25:48;;;;;;;5.97;3.92;;;;;;;11.03;96.85;99620.93;1745893;82;21009;-48
2022/09/21 07:28:14;;;;;;;5.10;3.58;;;;;;;11.14;97.12;99618.58;1745807;82;21409;-46
2022/09/21 07:30:40;;;;;;;3.90;3.27;;;;;;;11.29;97.00;99614.76;1745974;82;21484;-47
2022/09/21 07:33:07;;;;;;;6.75;3.20;;;;;;;11.41;96.31;99624.64;1745929;82;21054;-47
2022/09/21 07:35:33;;;;;;;5.53;3.07;;;;;;;11.51;95.77;99621.91;1746136;82;21014;-49
2022/09/21 07:38:02;;;;;;;5.37;3.10;;;;;;;11.53;95.24;99622.67;1745845;82;21014;-46
2022/09/21 07:40:28;;;;;;;3.60;2.77;;;;;;;11.67;94.89;99623.23;1745903;82;21002;-48
2022/09/21 07:43:01;;;;;;;8.30;3.17;;;;;;;11.62;93.89;99626.57;1746107;82;21036;-50
2022/09/21 07:45:30;;;;;;;9.30;3.00;;;;;;;11.65;93.98;99630.37;1745911;82;21010;-49
2022/09/21 07:48:03;;;;;;;4.35;3.12;;;;;;;11.64;93.14;99625.17;1745904;82;21001;-48
2022/09/21 07:50:30;;;;;;;6.10;3.25;;;;;;;11.60;92.94;99625.80;1745935;82;21053;-50
2022/09/21 07:52:59;;;;;;;7.30;3.47;;;;;;;11.70;92.88;99627.50;1746065;82;21042;-50
2022/09/21 07:55:25;;;;;;;7.90;2.22;;;;;;;11.67;92.31;99627.17;1745853;82;21045;-47
2022/09/21 08:00:37;;;;;;;5.78;2.72;;;;;;;11.66;92.22;99625.94;1744727;82;21610;-47
2022/09/21 08:03:04;;;;;;;;;;;;;;;11.64;91.91;99630.44;1747447;82;21120;-48
2022/09/21 08:05:31;;;;;;;4.72;2.05;;;;;;;11.53;92.26;99625.75;1745959;82;20420;-48
2022/09/21 08:07:57;;;;;;;8.40;2.58;;;;;;;11.64;92.15;99630.44;1746016;82;21014;-46
2022/09/21 08:10:27;;;;;;;3.42;2.35;;;;;;;11.60;91.92;99635.03;1745952;82;21014;-44
2022/09/21 08:12:53;;;;;;;5.70;2.50;;;;;;;11.45;91.44;99637.19;1745626;82;21024;-46
2022/09/21 08:15:19;;;;;;;4.13;2.27;;;;;;;11.61;91.69;99631.47;1746203;82;21513;-47
2022/09/21 08:17:45;;;;;;;4.28;2.40;;;;;;;11.71;91.92;99635.77;1745911;82;21041;-49
2022/09/21 08:20:12;;;;;;;5.33;2.42;;;;;;;11.71;91.27;99635.77;1741946;82;21070;-46
2022/09/21 08:22:39;;;;;;;4.25;2.00;;;;;;;11.72;91.37;99632.20;1728098;82;21030;-50
2022/09/21 08:25:05;;;;;;;3.72;2.30;;;;;;;11.78;91.33;99635.81;1708397;84;21034;-49
2022/09/21 08:27:31;;;;;;;4.10;2.37;;;;;;;11.83;91.34;99635.58;1708250;84;21014;-47
2022/09/21 08:29:57;;;;;;;1.82;1.72;;;;;;;11.89;91.19;99633.43;1708364;84;21509;-46
2022/09/21 08:32:23;;;;;;;3.67;2.45;;;;;;;12.01;90.95;99637.70;1708270;84;21524;-47
2022/09/21 08:34:49;;;;;;;1.92;1.67;;;;;;;11.97;90.31;99641.42;1708377;83;21011;-47
2022/09/21 08:37:15;;;;;;;2.35;2.02;;;;;;;12.00;89.89;99632.88;1708505;84;21504;-48
2022/09/21 08:39:41;;;;;;;5.47;2.20;;;;;;;12.12;90.00;99642.37;1708701;84;21059;-46
2022/09/21 08:42:36;;;;;;;3.45;2.20;;;;;;;12.18;89.43;99640.22;1708482;84;20998;-47
2022/09/21 08:45:09;;;;;;;5.50;2.40;;;;;;;12.25;89.23;99634.98;1708153;84;21012;-50
2022/09/21 08:47:45;;;;;;;4.92;2.15;;;;;;;12.32;88.65;99638.61;1711115;82;21474;-50
2022/09/21 08:50:37;;;;;;;3.47;2.17;;;;;;;12.31;88.47;99639.05;1723245;83;21016;-42
2022/09/21 08:53:14;;;;;;;4.80;1.72;;;;;;;12.41;88.47;99644.20;1718269;82;21001;-42
2022/09/21 08:55:40;;;;;;;8.58;1.98;;;;;;;12.43;87.67;99637.52;1723199;83;20981;-45
2022/09/21 08:58:14;;;;;;;4.12;1.72;;;;;;;12.47;87.70;99639.03;1722990;82;21636;-42
2022/09/21 09:00:41;;;;;;;2.30;1.62;;;;;;;12.48;86.69;99636.80;1722384;82;20987;-46
2022/09/21 09:03:30;;;;;;;5.10;2.08;;;;;;;12.58;86.93;99638.42;1723395;82;20961;-50
2022/09/21 09:06:11;;;;;;;2.35;1.60;;;;;;;12.77;87.20;99631.14;1733917;82;21026;-41
2022/09/21 09:08:49;;;;;;;4.20;1.90;;;;;;;12.75;85.11;99636.10;1736968;82;20975;-48
2022/09/21 09:11:51;;;;;;;2.02;1.75;;;;;;;12.90;85.99;99631.26;1704068;82;20987;-48
2022/09/21 09:14:37;;;;;;;3.37;2.00;;;;;;;13.01;84.71;99639.38;1737483;82;21475;-48
2022/09/21 09:17:11;;;;;;;8.47;1.70;;;;;;;13.16;85.39;99632.80;1737101;82;20987;-47
2022/09/21 09:19:49;;;;;;;2.85;1.90;;;;;;;13.25;84.14;99628.28;1736413;81;21003;-47
2022/09/21 09:22:20;;;;;;;2.08;1.37;;;;;;;13.38;83.72;99631.05;1737687;82;21062;-49
2022/09/21 09:24:50;;;;;;;2.55;1.50;;;;;;;13.49;84.62;99631.70;1737597;82;20994;-48
2022/09/21 09:27:21;;;;;;;3.55;1.30;;;;;;;13.34;80.58;99634.34;1723020;82;21026;-42
2022/09/21 09:30:00;;;;;;;2.67;1.12;;;;;;;13.29;79.23;99632.42;1739129;82;20998;-43
2022/09/21 09:32:53;;;;;;;3.17;1.75;;;;;;;13.30;79.60;99630.63;1738372;82;20963;-43
2022/09/21 09:35:30;;;;;;;2.92;1.27;;;;;;;13.37;78.86;99633.30;1737463;82;20990;-44
2022/09/21 09:38:01;;;;;;;6.03;1.50;;;;;;;13.53;79.58;99623.48;1737777;82;20986;-45
2022/09/21 09:40:36;;;;;;;2.72;1.20;;;;;;;13.65;78.63;99615.75;1736584;82;21050;-44
2022/09/21 09:43:10;;;;;;;3.58;1.15;;;;;;;13.62;75.28;99613.69;1730713;82;21006;-44
2022/09/21 09:45:44;;;;;;;5.97;1.42;;;;;;;13.67;77.87;99621.31;1737662;82;20983;-45
2022/09/21 09:48:35;;;;;;;4.95;1.82;;;;;;;13.58;77.36;99625.84;1736815;82;20994;-42
2022/09/21 09:51:01;;;;;;;4.72;1.98;;;;;;;13.57;77.98;99626.78;1737842;82;21034;-42
2022/09/21 09:53:27;;;;;;;1.00;0.90;;;;;;;13.38;77.22;99627.08;1737923;82;21006;-42
2022/09/21 09:55:56;;;;;;;2.47;1.27;;;;;;;13.30;78.00;99628.85;1737722;82;21002;-44
2022/09/21 09:58:48;;;;;;;2.85;1.95;;;;;;;13.20;78.75;99628.54;1737802;82;21044;-44
2022/09/21 10:01:40;;;;;;;10.50;1.40;;;;;;;13.17;78.95;99627.87;1737333;82;20983;-43
2022/09/21 10:04:13;;;;;;;4.10;1.57;;;;;;;13.21;79.46;99626.77;1737621;82;21050;-41
2022/09/21 10:06:40;;;;;;;2.50;1.50;;;;;;;13.28;78.71;99633.38;1736624;82;20979;-43
2022/09/21 10:09:32;;;;;;;1.82;1.00;;;;;;;13.25;78.32;99631.76;1737927;82;21475;-43
2022/09/21 10:12:03;;;;;;;1.15;1.02;;;;;;;13.21;78.07;99625.45;1731918;82;21022;-43
2022/09/21 10:14:33;;;;;;;5.65;1.10;;;;;;;13.18;77.72;99616.39;1736655;82;21198;-42
2022/09/21 10:17:05;;;;;;;1.10;1.00;;;;;;;13.38;78.64;99616.52;1737247;82;21113;-41
2022/09/21 10:19:31;;;;;;;2.72;1.45;;;;;;;13.40;76.02;99612.83;1739142;82;21002;-43
2022/09/21 10:22:01;;;;;;;2.30;1.02;;;;;;;13.60;77.24;99616.87;1738148;82;21578;-45
2022/09/21 10:24:34;;;;;;;2.83;1.17;;;;;;;13.69;75.55;99612.80;1739172;82;21527;-42
2022/09/21 10:27:13;;;;;;;5.17;1.10;;;;;;;13.78;73.70;99615.34;1738822;82;21519;-41
2022/09/21 10:29:45;;;;;;;4.25;0.68;;;;;;;13.73;73.57;99613.46;1739533;82;20987;-41
2022/09/21 10:32:17;;;;;;;3.37;1.17;;;;;;;13.70;71.66;99614.52;1739112;82;21006;-42
2022/09/21 10:35:13;;;;;;;6.12;1.25;;;;;;;13.75;73.42;99621.69;1738599;82;21038;-41
2022/09/21 10:37:42;;;;;;;3.65;1.10;;;;;;;13.78;72.54;99617.50;1734734;82;21010;-41
2022/09/21 10:40:22;;;;;;;15.70;1.37;;;;;;;14.11;74.61;99617.61;1714928;82;21023;-40
2022/09/21 10:42:52;;;;;;;1.92;0.93;;;;;;;14.32;71.77;99626.44;1707188;84;21038;-47
2022/09/21 10:45:28;;;;;;;25.85;1.62;;;;;;;14.71;72.66;99630.06;1678061;84;21078;-46
2022/09/21 10:48:08;;;;;;;5.08;0.90;;;;;;;14.56;69.58;99640.69;1707807;84;21635;-47
2022/09/21 10:50:44;;;;;;;1.60;0.80;;;;;;;14.12;71.15;99643.61;1706844;84;21030;-45
2022/09/21 10:53:15;;;;;;;3.02;1.00;;;;;;;13.60;73.72;99646.41;1707697;84;21109;-46
2022/09/21 10:55:45;;;;;;;1.82;0.95;;;;;;;13.23;74.47;99646.02;1707438;84;21028;-47
2022/09/21 10:58:13;;;;;;;2.05;0.80;;;;;;;13.12;76.18;99639.22;1707064;84;21062;-47
2022/09/21 11:00:46;;;;;;;5.45;1.30;;;;;;;13.02;77.72;99633.62;1677687;84;21090;-46
2022/09/21 11:03:57;;;;;;;2.90;1.42;;;;;;;12.94;78.95;99631.44;1708248;84;21014;-46
2022/09/21 11:06:30;;;;;;;1.52;1.25;;;;;;;13.19;79.92;99628.18;1707257;84;21082;-47
2022/09/21 11:09:13;;;;;;;3.35;2.15;;;;;;;14.50;79.89;99633.65;1707519;84;21054;-47
2022/09/21 11:11:56;;;;;;;4.22;1.60;;;;;;;15.90;80.07;99628.05;1707928;84;21323;-47
2022/09/21 11:14:37;;;;;;;2.62;1.10;;;;;;;17.16;74.01;99619.16;1669442;82;21063;-46
2022/09/21 11:17:20;;;;;;;1.85;1.30;;;;;;;18.09;70.92;99620.70;1726522;82;20992;-48
2022/09/21 11:20:04;;;;;;;7.90;1.15;;;;;;;19.14;68.83;99628.86;1726900;82;21102;-46
2022/09/21 11:23:19;;;;;;;2.98;1.00;;;;;;;20.22;67.82;99617.59;1719995;83;21012;-53
2022/09/21 11:26:15;;;;;;;2.85;1.22;;;;;;;21.56;67.33;99621.25;1708796;82;21070;-46
2022/09/21 11:28:59;;;;;;;1.20;0.90;;;;;;;22.29;58.98;99622.28;1721664;82;21026;-46
2022/09/21 11:31:42;;;;;;;1.75;0.82;;;;;;;22.23;53.48;99618.35;1719258;83;21114;-54
2022/09/21 11:34:49;;;;;;;1.42;1.02;;;;;;;21.82;54.68;99618.72;1730543;82;21054;-45
2022/09/21 11:37:29;;;;;;;1.45;0.98;;;;;;;20.77;54.41;99624.23;1734895;82;21066;-41
2022/09/21 11:40:19;;;;;;;1.57;1.00;;;;;;;20.81;54.65;99609.12;1735047;82;21030;-44
2022/09/21 11:42:53;;;;;;;1.60;0.82;;;;;;;21.06;53.56;99615.67;1736748;82;21006;-42
2022/09/21 11:45:47;;;;;;;2.05;1.00;;;;;;;21.38;47.83;99618.47;1736434;82;21042;-43
2022/09/21 11:48:35;;;;;;;1.15;0.78;;;;;;;22.52;50.74;99614.61;1736343;82;21070;-46
2022/09/21 11:51:39;;;;;;;1.55;0.85;;;;;;;23.34;47.65;99612.06;1736864;82;21042;-43
2022/09/21 11:54:19;;;;;;;1.42;0.93;;;;;;;23.63;43.87;99613.55;1738524;82;21002;-43
2022/09/21 11:57:03;;;;;;;4.12;1.15;;;;;;;23.28;43.29;99612.69;1723630;82;21019;-45
2022/09/21 11:59:47;;;;;;;3.10;0.90;;;;;;;22.17;45.19;99607.72;1707713;84;21006;-42
2022/09/21 12:02:50;;;;;;;4.50;1.00;;;;;;;20.46;45.98;99615.00;1706121;84;21026;-42
2022/09/21 12:05:20;;;;;;;2.67;1.02;;;;;;;21.18;46.12;99604.83;1706857;83;20990;-41